Time;durP1;ratioP1;P1;durP2;ratioP2;P2;SDS_P1;SDS_P2;PMS_P1;PMS_P2;Temp;Humidity;BMP_temperature;BMP_pressure;BME280_temperature;BME280_humidity;BME280_pressure;Samples;Min_cycle;Max_cycle;Signal;HPM_P1;HPM_P2
2022/01/16 00:00:57;;;;;;;253.73;33.03;;;0.10;99.90;;;-1.52;100.00;98386.97;5004221;28;20053;-69
2022/01/16 00:06:13;;;;;;;200.02;29.55;;;0.00;99.90;;;-1.54;100.00;98378.44;5003346;28;20533;-69
2022/01/16 00:08:40;;;;;;;202.85;27.35;;;0.10;99.90;;;-1.57;100.00;98386.88;5003751;28;20574;-69
2022/01/16 00:11:07;;;;;;;343.10;40.25;;;0.00;99.90;;;-1.62;100.00;98390.16;5002774;28;20111;-69
2022/01/16 00:13:35;;;;;;;164.95;30.85;;;0.00;99.90;;;-1.57;100.00;98381.78;5002021;28;20463;-68
2022/01/16 00:16:02;;;;;;;123.03;26.00;;;0.00;99.90;;;-1.60;100.00;98389.34;5004442;28;20077;-70
2022/01/16 00:18:40;;;;;;;152.32;31.00;;;-0.10;99.90;;;-1.64;100.00;98396.91;5004095;28;20056;-68
2022/01/16 00:21:07;;;;;;;70.13;21.98;;;0.00;99.90;;;-1.55;100.00;98399.63;5001450;28;20581;-69
2022/01/16 00:23:34;;;;;;;126.70;26.48;;;0.00;99.90;;;-1.47;100.00;98380.25;5003501;28;20120;-69
2022/01/16 00:26:01;;;;;;;83.88;23.35;;;0.00;99.90;;;-1.36;100.00;98365.19;5005429;28;20112;-69
2022/01/16 00:28:28;;;;;;;60.65;22.70;;;0.00;99.90;;;-1.26;100.00;98364.47;5005349;28;20088;-69
2022/01/16 00:30:55;;;;;;;48.53;19.52;;;0.00;99.90;;;-1.27;100.00;98340.72;5004671;28;20125;-69
2022/01/16 00:33:22;;;;;;;78.05;22.77;;;0.00;99.90;;;-1.22;100.00;98329.75;5004466;28;20140;-69
2022/01/16 00:35:49;;;;;;;65.28;21.05;;;0.00;99.90;;;-1.28;100.00;98336.47;5003697;28;20053;-69
2022/01/16 00:38:17;;;;;;;133.65;30.40;;;0.00;99.90;;;-1.41;100.00;98362.56;5004897;28;20137;-69
2022/01/16 00:40:44;;;;;;;114.85;28.17;;;0.00;99.90;;;-1.42;100.00;98365.91;5004726;28;20498;-69
2022/01/16 00:43:11;;;;;;;95.72;27.75;;;0.00;99.90;;;-1.42;100.00;98365.06;5003855;28;20073;-69
2022/01/16 00:45:38;;;;;;;56.92;21.58;;;0.00;99.90;;;-1.23;100.00;98367.09;5005594;28;20152;-68
2022/01/16 00:48:06;;;;;;;67.35;22.90;;;0.00;99.90;;;-1.27;100.00;98367.88;5008372;28;20542;-69
2022/01/16 00:50:34;;;;;;;82.45;25.23;;;0.10;99.90;;;-1.22;100.00;98378.16;5004774;28;20057;-69
2022/01/16 00:53:03;;;;;;;73.65;24.45;;;0.10;99.90;;;-1.21;100.00;98352.69;5006148;28;20104;-68
2022/01/16 00:55:32;;;;;;;77.18;24.38;;;0.10;99.90;;;-1.08;100.00;98380.06;5009759;28;20144;-69
2022/01/16 00:57:59;;;;;;;95.35;24.17;;;0.10;99.90;;;-1.15;100.00;98362.13;5005908;28;20116;-69
2022/01/16 01:00:31;;;;;;;80.72;24.83;;;0.10;99.90;;;-1.03;100.00;98379.28;5006371;28;20065;-69
2022/01/16 01:03:02;;;;;;;88.65;25.38;;;0.10;99.90;;;-1.28;100.00;98361.94;5005265;28;20045;-70
2022/01/16 01:05:30;;;;;;;68.68;26.55;;;0.10;99.90;;;-1.24;100.00;98372.16;5004393;28;20107;-69
2022/01/16 01:07:57;;;;;;;75.15;24.13;;;0.10;99.90;;;-1.35;100.00;98367.72;5009242;28;20050;-69
2022/01/16 01:10:39;;;;;;;116.13;23.98;;;0.00;99.90;;;-1.56;100.00;98380.09;5009214;28;20042;-69
2022/01/16 01:13:21;;;;;;;103.75;29.92;;;0.00;99.90;;;-1.51;100.00;98379.31;5005081;28;20056;-68
2022/01/16 01:15:57;;;;;;;90.32;25.27;;;0.00;99.90;;;-1.48;100.00;98376.84;5008737;28;20525;-69
2022/01/16 01:18:25;;;;;;;206.55;35.40;;;-0.10;99.90;;;-1.60;100.00;98381.72;5004642;28;20058;-69
2022/01/16 01:20:53;;;;;;;66.43;23.98;;;-0.10;99.90;;;-1.41;100.00;98393.09;5007473;28;20165;-69
2022/01/16 01:23:20;;;;;;;139.88;28.50;;;0.00;99.90;;;-1.38;100.00;98369.38;5006535;28;20073;-69
2022/01/16 01:25:48;;;;;;;113.82;29.50;;;0.00;99.90;;;-1.41;100.00;98313.31;5008544;28;20125;-69
2022/01/16 01:28:15;;;;;;;117.47;28.42;;;0.00;99.90;;;-1.37;100.00;98307.41;5005946;28;20042;-68
2022/01/16 01:30:46;;;;;;;177.13;32.25;;;0.00;99.90;;;-1.61;100.00;98300.25;5007398;28;20133;-68
2022/01/16 01:33:18;;;;;;;97.55;29.17;;;-0.10;99.90;;;-1.50;100.00;98299.59;5007822;28;20045;-68
2022/01/16 01:35:45;;;;;;;236.50;38.25;;;-0.10;99.90;;;-1.73;100.00;98290.72;5008992;28;20488;-68
2022/01/16 01:38:17;;;;;;;78.68;27.42;;;0.00;99.90;;;-1.54;100.00;98304.59;5011219;28;20283;-69
2022/01/16 01:40:48;;;;;;;77.70;25.33;;;-0.10;99.90;;;-1.51;100.00;98325.88;5014595;28;20069;-69
2022/01/16 01:51:26;;;;;;;91.75;28.73;;;-0.10;99.90;;;-1.60;100.00;98366.44;5009910;28;20502;-68
2022/01/16 01:53:56;;;;;;;73.00;29.92;;;-0.10;99.90;;;-1.44;100.00;98359.06;5006488;28;20073;-69
2022/01/16 01:56:25;;;;;;;88.20;28.25;;;-0.10;99.90;;;-1.61;100.00;98389.34;5005050;28;20536;-69
2022/01/16 01:58:55;;;;;;;92.28;28.98;;;-0.10;99.90;;;-1.75;100.00;98369.56;5006302;28;20140;-68
2022/01/16 02:01:27;;;;;;;82.63;28.40;;;-0.10;99.90;;;-1.71;100.00;98371.34;5009557;28;20045;-69
2022/01/16 02:03:54;;;;;;;90.82;30.90;;;-0.10;99.90;;;-1.67;100.00;98366.31;5017027;28;20086;-68
2022/01/16 02:06:28;;;;;;;112.60;34.63;;;-0.10;99.90;;;-1.62;100.00;98374.88;5006715;28;20077;-68
2022/01/16 02:09:00;;;;;;;82.93;32.72;;;-0.10;99.90;;;-1.55;100.00;98382.69;5008016;28;20413;-68
2022/01/16 02:11:31;;;;;;;99.68;38.67;;;-0.10;99.90;;;-1.55;100.00;98384.34;5007920;28;20080;-68
2022/01/16 02:14:52;;;;;;;67.63;24.25;;;-0.10;99.90;;;-1.60;100.00;98398.69;5008815;28;20673;-68
2022/01/16 02:38:50;;;;;;;69.43;28.52;;;-0.10;99.90;;;-1.60;100.00;98384.25;5007477;28;20080;-68
2022/01/16 02:41:17;;;;;;;81.20;32.17;;;-0.20;99.90;;;-1.72;100.00;98384.03;5009447;28;20133;-69
2022/01/16 02:43:50;;;;;;;93.30;34.10;;;-0.20;99.90;;;-1.72;100.00;98397.63;5017854;28;20124;-68
2022/01/16 02:48:48;;;;;;;86.72;31.60;;;-0.20;99.90;;;-1.73;100.00;98372.16;5007917;28;20481;-69
2022/01/16 02:51:18;;;;;;;78.90;32.65;;;-0.20;99.90;;;-1.61;100.00;98369.81;5006763;28;20145;-69
2022/01/16 02:53:47;;;;;;;83.43;31.33;;;-0.20;99.90;;;-1.72;100.00;98350.94;5007913;28;20553;-68
2022/01/16 02:56:16;;;;;;;81.47;30.00;;;-0.20;99.90;;;-1.74;100.00;98342.41;5009137;28;20144;-68
2022/01/16 02:58:45;;;;;;;82.72;31.92;;;-0.20;99.90;;;-1.76;100.00;98339.84;5007615;28;20509;-68
2022/01/16 03:01:13;;;;;;;89.65;33.53;;;-0.20;99.90;;;-1.80;100.00;98343.19;5009366;28;20052;-68
2022/01/16 03:03:43;;;;;;;91.43;32.40;;;-0.20;99.90;;;-1.75;100.00;98351.75;5009497;28;20054;-69
2022/01/16 03:06:10;;;;;;;76.45;32.15;;;-0.20;99.90;;;-1.69;100.00;98340.81;5007239;28;20067;-69
2022/01/16 03:08:37;;;;;;;81.75;30.92;;;-0.30;99.90;;;-1.63;100.00;98340.94;5007312;28;20050;-69
2022/01/16 03:11:23;;;;;;;98.18;36.55;;;-0.30;99.90;;;-1.55;100.00;98321.56;5007682;28;20133;-70
2022/01/16 03:13:51;;;;;;;81.18;32.10;;;-0.20;99.90;;;-1.49;100.00;98326.75;5009818;28;20062;-69
2022/01/16 03:16:21;;;;;;;75.82;30.27;;;-0.20;99.90;;;-1.48;100.00;98325.94;5009414;28;20128;-70
2022/01/16 03:21:54;;;;;;;72.60;29.73;;;-0.30;99.90;;;-1.55;100.00;98310.50;5008102;28;20045;-69
2022/01/16 03:24:38;;;;;;;93.68;29.80;;;-0.30;99.90;;;-1.93;100.00;98320.88;5006740;28;20125;-69
2022/01/16 03:27:14;;;;;;;93.28;33.45;;;-0.30;99.90;;;-1.74;100.00;98297.47;5005618;28;20156;-68
2022/01/16 03:29:46;;;;;;;107.32;36.25;;;-0.30;99.90;;;-1.82;100.00;98300.72;5003996;28;20045;-69
2022/01/16 03:32:20;;;;;;;96.97;31.27;;;-0.40;99.90;;;-2.04;100.00;98309.63;5004594;28;20060;-69
2022/01/16 03:34:47;;;;;;;121.90;34.95;;;-0.40;99.90;;;-2.14;100.00;98306.06;5007649;28;20137;-69
2022/01/16 03:37:16;;;;;;;122.38;37.17;;;-0.50;99.90;;;-2.10;100.00;98310.34;5007188;28;20042;-69
2022/01/16 03:39:43;;;;;;;110.28;33.80;;;-0.50;99.90;;;-2.04;100.00;98318.13;5005547;28;20083;-69
2022/01/16 03:42:10;;;;;;;119.28;40.13;;;-0.50;99.90;;;-1.92;100.00;98307.31;5006764;28;20045;-69
2022/01/16 03:44:37;;;;;;;101.03;32.70;;;-0.50;99.90;;;-2.01;100.00;98312.22;5007911;28;20168;-68
2022/01/16 03:47:04;;;;;;;108.43;35.63;;;-0.50;99.90;;;-1.87;100.00;98312.47;5006640;28;20088;-69
2022/01/16 03:49:32;;;;;;;128.02;37.30;;;-0.50;99.90;;;-1.91;100.00;98316.69;5005744;28;20136;-68
2022/01/16 03:52:00;;;;;;;126.15;39.47;;;-0.50;99.90;;;-1.83;100.00;98314.25;5007292;28;20133;-68
2022/01/16 03:54:31;;;;;;;157.60;38.75;;;-0.40;99.90;;;-2.04;100.00;98327.44;5005829;28;20060;-69
2022/01/16 03:56:59;;;;;;;114.45;36.20;;;-0.50;99.90;;;-2.03;100.00;98319.84;5006474;28;20145;-68
2022/01/16 03:59:27;;;;;;;195.48;41.65;;;-0.40;99.90;;;-1.96;100.00;98319.13;5004837;28;20129;-68
2022/01/16 04:01:54;;;;;;;149.50;39.08;;;-0.50;99.90;;;-2.11;100.00;98312.06;5006090;28;20141;-69
2022/01/16 04:04:21;;;;;;;176.95;41.17;;;-0.50;99.90;;;-2.04;100.00;98313.03;5008005;28;20119;-68
2022/01/16 04:06:48;;;;;;;182.23;42.92;;;-0.50;99.90;;;-1.99;100.00;98319.06;5008118;28;20050;-68
2022/01/16 04:09:15;;;;;;;141.45;35.17;;;-0.50;99.90;;;-1.98;100.00;98325.03;5007754;28;20084;-69
2022/01/16 04:11:51;;;;;;;115.95;36.15;;;-0.50;99.90;;;-1.96;100.00;98315.72;5006747;28;20467;-68
2022/01/16 04:15:31;;;;;;;308.83;49.90;;;-0.50;99.90;;;-2.26;100.00;98328.69;5006233;28;20121;-68
2022/01/16 04:17:19;;;;;;;228.55;47.67;;;-0.60;99.90;;;-2.07;100.00;98332.47;5003676;28;20572;-69
2022/01/16 04:19:48;;;;;;;340.00;51.95;;;-0.50;99.90;;;-2.11;100.00;98337.50;5003393;28;20133;-68
2022/01/16 04:22:15;;;;;;;167.82;41.40;;;-0.50;99.90;;;-2.05;100.00;98335.88;5006730;28;20061;-68
2022/01/16 04:24:42;;;;;;;179.10;40.40;;;-0.60;99.90;;;-1.96;100.00;98344.56;5005680;28;20397;-68
2022/01/16 04:27:11;;;;;;;249.48;41.05;;;-0.60;99.90;;;-2.08;100.00;98333.28;5006053;28;20038;-69
2022/01/16 04:29:39;;;;;;;387.60;47.50;;;-0.60;99.90;;;-2.16;100.00;98344.19;5006133;28;20045;-68
2022/01/16 04:32:07;;;;;;;314.55;42.47;;;-0.60;99.90;;;-2.22;100.00;98338.97;5005441;28;20509;-68
2022/01/16 04:34:34;;;;;;;539.88;67.72;;;-0.60;99.90;;;-2.33;100.00;98330.25;5004754;28;20128;-69
2022/01/16 04:37:02;;;;;;;329.00;44.35;;;-0.60;99.90;;;-2.35;100.00;98344.63;5006664;28;20159;-68
2022/01/16 04:39:34;;;;;;;226.95;45.97;;;-0.60;99.90;;;-2.25;100.00;98326.19;5005889;28;20120;-68
2022/01/16 04:44:49;;;;;;;488.23;58.33;;;-0.70;99.90;;;-2.39;100.00;98325.06;5006325;28;20129;-68
2022/01/16 04:47:17;;;;;;;348.60;53.90;;;-0.70;99.90;;;-2.21;100.00;98330.53;5006008;28;20052;-68
2022/01/16 04:49:44;;;;;;;349.98;50.25;;;-0.70;99.90;;;-2.28;100.00;98325.25;5006951;28;20088;-69
2022/01/16 04:52:11;;;;;;;544.42;63.58;;;-0.70;99.90;;;-2.36;100.00;98318.34;5008079;28;20081;-68
2022/01/16 04:54:38;;;;;;;466.70;54.92;;;-0.80;99.90;;;-2.47;100.00;98319.78;5006327;28;20060;-68
2022/01/16 04:57:05;;;;;;;407.85;53.90;;;-0.80;99.90;;;-2.38;100.00;98329.31;5005730;28;20061;-68
2022/01/16 04:59:32;;;;;;;330.63;48.13;;;-0.80;99.90;;;-2.52;100.00;98344.28;5006127;28;20050;-68
2022/01/16 05:01:59;;;;;;;355.38;48.95;;;-0.80;99.90;;;-2.51;100.00;98343.44;5005385;28;20153;-68
2022/01/16 05:04:26;;;;;;;426.90;51.75;;;-0.80;99.90;;;-2.50;100.00;98362.09;5006315;28;20046;-68
2022/01/16 05:06:53;;;;;;;478.98;59.38;;;-0.80;99.90;;;-2.42;100.00;98345.31;5007684;28;20474;-68
2022/01/16 05:09:20;;;;;;;505.55;66.85;;;-0.80;99.90;;;-2.57;100.00;98345.88;5005565;28;20409;-68
2022/01/16 05:11:53;;;;;;;371.20;50.50;;;-0.90;99.90;;;-2.64;100.00;98354.19;5006214;28;20591;-68
2022/01/16 05:17:06;;;;;;;258.90;41.08;;;-1.00;99.90;;;-2.68;100.00;98360.88;5005784;28;20077;-68
2022/01/16 05:19:33;;;;;;;488.80;57.15;;;-1.00;99.90;;;-2.67;100.00;98361.72;5005846;28;20128;-68
2022/01/16 05:22:00;;;;;;;371.35;52.83;;;-1.00;99.90;;;-2.69;100.00;98383.69;5007074;28;20137;-68
2022/01/16 05:24:32;;;;;;;405.55;58.83;;;-1.00;99.90;;;-2.77;100.00;98386.06;5004234;28;20054;-68
2022/01/16 05:26:59;;;;;;;267.00;45.95;;;-1.00;99.90;;;-2.67;100.00;98387.97;5005096;28;20263;-68
2022/01/16 05:29:25;;;;;;;254.95;40.70;;;-1.00;99.90;;;-2.69;100.00;98391.31;5005416;28;20124;-68
2022/01/16 05:31:52;;;;;;;410.65;51.72;;;-1.00;99.90;;;-2.68;100.00;98387.97;5007566;28;20054;-68
2022/01/16 05:34:21;;;;;;;408.85;53.72;;;-1.10;99.90;;;-2.70;100.00;98385.38;5009927;28;20048;-68
2022/01/16 05:36:49;;;;;;;322.17;51.85;;;-1.10;99.90;;;-2.58;100.00;98388.22;5010055;28;20120;-68
2022/01/16 05:39:16;;;;;;;318.92;47.10;;;-1.10;99.90;;;-2.73;100.00;98392.94;5009167;28;20533;-69
2022/01/16 05:41:43;;;;;;;247.80;45.30;;;-1.10;99.90;;;-2.61;100.00;98394.91;5010916;28;20196;-68
2022/01/16 05:44:10;;;;;;;353.27;52.33;;;-1.10;99.90;;;-2.65;100.00;98413.44;5010683;28;20345;-68
2022/01/16 05:46:37;;;;;;;202.68;45.92;;;-1.10;99.90;;;-2.55;100.00;98402.69;5009239;28;20053;-68
2022/01/16 05:49:04;;;;;;;218.25;44.75;;;-1.10;99.90;;;-2.37;100.00;98404.78;5009873;28;20100;-69
2022/01/16 05:51:31;;;;;;;389.42;53.67;;;-1.00;99.90;;;-2.63;100.00;98409.25;5010005;28;20133;-69
2022/01/16 05:53:58;;;;;;;327.42;50.65;;;-1.00;99.90;;;-2.61;100.00;98407.59;5009443;28;20050;-69
2022/01/16 05:56:25;;;;;;;363.00;51.95;;;-1.00;99.90;;;-2.63;100.00;98394.00;5008090;28;20072;-69
2022/01/16 05:58:52;;;;;;;159.40;35.72;;;-1.00;99.90;;;-2.60;100.00;98405.13;5008529;28;20046;-68
2022/01/16 06:01:19;;;;;;;321.10;50.00;;;-1.00;99.90;;;-2.65;100.00;98388.03;5009555;28;20756;-68
2022/01/16 06:03:46;;;;;;;370.30;50.70;;;-1.00;99.90;;;-2.59;100.00;98394.09;5008674;28;20053;-69
2022/01/16 06:06:13;;;;;;;202.60;39.35;;;-1.10;99.90;;;-2.53;100.00;98401.03;5009562;28;20045;-68
2022/01/16 06:08:40;;;;;;;275.92;44.08;;;-1.10;99.90;;;-2.60;100.00;98407.66;5008864;28;20110;-68
2022/01/16 06:11:07;;;;;;;226.05;44.13;;;-1.10;99.90;;;-2.50;100.00;98415.50;5009665;28;20128;-68
2022/01/16 06:13:34;;;;;;;330.00;44.60;;;-1.10;99.90;;;-2.68;100.00;98398.97;5007783;28;20056;-70
2022/01/16 06:16:02;;;;;;;250.20;41.25;;;-1.10;99.90;;;-2.61;100.00;98408.47;5009541;28;20418;-68
2022/01/16 06:18:29;;;;;;;351.63;48.85;;;-1.10;99.90;;;-2.69;100.00;98411.63;5006353;28;20085;-68
2022/01/16 06:20:56;;;;;;;243.65;46.10;;;-1.10;99.90;;;-2.58;100.00;98408.56;5010170;28;20049;-68
2022/01/16 06:23:23;;;;;;;383.10;51.65;;;-1.10;99.90;;;-2.58;100.00;98418.72;5008965;28;20065;-68
2022/01/16 06:25:54;;;;;;;385.38;47.70;;;-1.10;99.90;;;-2.66;100.00;98419.34;5008731;28;20585;-68
2022/01/16 06:28:27;;;;;;;449.52;55.42;;;-1.10;99.90;;;-2.75;100.00;98423.38;5008491;28;20045;-68
2022/01/16 06:30:54;;;;;;;241.45;40.10;;;-1.00;99.90;;;-2.58;100.00;98426.34;5008684;28;20152;-68
2022/01/16 06:33:21;;;;;;;243.45;43.30;;;-1.00;99.90;;;-2.51;100.00;98429.84;5009313;28;20046;-68
2022/01/16 06:35:48;;;;;;;265.27;41.92;;;-1.00;99.90;;;-2.37;100.00;98427.66;5006453;28;20145;-68
2022/01/16 06:38:15;;;;;;;201.50;36.53;;;-1.00;99.90;;;-2.54;100.00;98430.66;5008204;28;20470;-69
2022/01/16 06:40:42;;;;;;;376.13;51.53;;;-1.00;99.90;;;-2.60;100.00;98424.56;5008181;28;20132;-69
2022/01/16 06:43:09;;;;;;;377.48;52.20;;;-1.00;99.90;;;-2.48;100.00;98424.88;5006523;28;20516;-68
2022/01/16 06:45:37;;;;;;;255.57;45.83;;;-1.00;99.90;;;-2.56;100.00;98441.59;5007130;28;20132;-68
2022/01/16 06:48:04;;;;;;;331.88;53.67;;;-1.00;99.90;;;-2.67;100.00;98453.19;5007762;28;20553;-69
2022/01/16 06:50:30;;;;;;;282.05;46.63;;;-1.00;99.90;;;-2.66;100.00;98462.56;5008580;28;20706;-68
2022/01/16 06:52:58;;;;;;;188.77;40.88;;;-1.00;99.90;;;-2.49;100.00;98463.81;5007685;28;20240;-68
2022/01/16 06:55:25;;;;;;;301.95;49.67;;;-1.00;99.90;;;-2.57;100.00;98475.50;5006912;28;20089;-68
2022/01/16 06:57:52;;;;;;;262.75;49.83;;;-1.00;99.90;;;-2.57;100.00;98490.75;5004733;28;20137;-68
2022/01/16 07:00:18;;;;;;;224.20;45.45;;;-1.00;99.90;;;-2.43;100.00;98475.81;5008494;28;20132;-68
2022/01/16 07:02:45;;;;;;;153.27;35.90;;;-0.90;99.90;;;-2.56;100.00;98480.59;5008477;28;20060;-68
2022/01/16 07:05:12;;;;;;;154.38;35.45;;;-0.90;99.90;;;-2.55;100.00;98489.09;5005062;28;20064;-68
2022/01/16 07:07:39;;;;;;;201.68;35.95;;;-1.00;99.90;;;-2.57;100.00;98493.28;5002600;28;20106;-69
2022/01/16 07:10:15;;;;;;;225.23;38.85;;;-1.00;99.90;;;-2.62;100.00;98500.78;5007434;28;20065;-68
2022/01/16 07:12:42;;;;;;;220.07;43.30;;;-1.00;99.90;;;-2.48;100.00;98510.44;5004999;28;20153;-69
2022/01/16 07:15:10;;;;;;;167.65;38.47;;;-1.10;99.90;;;-2.36;100.00;98505.63;5007629;28;20064;-68
2022/01/16 07:17:37;;;;;;;291.42;46.83;;;-1.00;99.90;;;-2.43;100.00;98526.66;5008545;28;20060;-67
2022/01/16 07:20:09;;;;;;;192.55;40.72;;;-1.00;99.90;;;-2.25;100.00;98505.91;5007517;28;20442;-68
2022/01/16 07:22:36;;;;;;;282.67;48.63;;;-1.00;99.90;;;-2.37;100.00;98506.47;5007133;28;20084;-69
2022/01/16 07:25:03;;;;;;;307.83;46.92;;;-1.00;99.90;;;-2.49;100.00;98511.25;5007616;28;20072;-68
2022/01/16 07:27:30;;;;;;;182.13;38.28;;;-0.90;99.90;;;-2.28;100.00;98511.78;5008269;28;20081;-68
2022/01/16 07:29:58;;;;;;;196.10;42.50;;;-0.90;99.90;;;-2.26;100.00;98507.56;5008987;28;20077;-67
2022/01/16 07:32:26;;;;;;;239.88;45.95;;;-0.90;99.90;;;-2.27;100.00;98515.16;5008302;28;20065;-68
2022/01/16 07:34:53;;;;;;;237.73;39.03;;;-0.90;99.90;;;-2.49;100.00;98518.88;5009708;28;20085;-67
2022/01/16 07:37:20;;;;;;;336.20;46.55;;;-0.80;99.90;;;-2.40;100.00;98514.00;5007338;28;20120;-68
2022/01/16 07:39:47;;;;;;;486.23;55.67;;;-0.90;99.90;;;-2.46;100.00;98521.47;5007267;28;20161;-68
2022/01/16 07:42:14;;;;;;;264.42;46.35;;;-0.90;99.90;;;-2.38;100.00;98518.31;5007404;28;20133;-70
2022/01/16 07:44:41;;;;;;;247.85;41.05;;;-0.90;99.90;;;-2.33;100.00;98536.22;5008207;28;20061;-67
2022/01/16 07:47:08;;;;;;;353.08;46.42;;;-0.90;99.90;;;-2.39;100.00;98529.31;5008102;28;20504;-68
2022/01/16 07:49:35;;;;;;;335.58;46.17;;;-0.90;99.90;;;-2.37;100.00;98516.66;5007812;28;20053;-67
2022/01/16 07:52:02;;;;;;;414.17;56.28;;;-0.80;99.90;;;-2.45;100.00;98539.31;5004292;28;20144;-69
2022/01/16 07:54:29;;;;;;;241.80;39.88;;;-0.80;99.90;;;-2.27;100.00;98538.06;5005681;28;20558;-67
2022/01/16 07:56:56;;;;;;;271.60;46.55;;;-0.90;99.90;;;-2.32;100.00;98546.44;5007657;28;20050;-67
2022/01/16 07:59:24;;;;;;;199.25;44.03;;;-0.80;99.90;;;-2.24;100.00;98540.66;5007808;28;20058;-68
2022/01/16 08:01:50;;;;;;;208.02;46.42;;;-0.80;99.90;;;-2.32;100.00;98551.50;5007485;28;20216;-69
2022/01/16 08:04:17;;;;;;;166.02;41.35;;;-0.70;99.90;;;-2.29;100.00;98572.75;5006978;28;20129;-67
2022/01/16 08:06:44;;;;;;;148.43;37.80;;;-0.80;99.90;;;-2.24;100.00;98549.16;5008032;28;20205;-67
2022/01/16 08:09:11;;;;;;;202.35;44.65;;;-0.70;99.90;;;-2.22;100.00;98562.75;5008138;28;20125;-68
2022/01/16 08:11:38;;;;;;;168.30;40.80;;;-0.70;99.90;;;-2.28;100.00;98565.19;5007872;28;20542;-69
2022/01/16 08:14:06;;;;;;;156.98;38.55;;;-0.70;99.90;;;-2.29;100.00;98544.78;5006451;28;20081;-70
2022/01/16 08:16:32;;;;;;;171.27;39.88;;;-0.70;99.90;;;-2.28;100.00;98554.13;5007641;28;20136;-68
2022/01/16 08:18:59;;;;;;;133.70;37.15;;;-0.70;99.90;;;-2.10;100.00;98552.00;5004445;28;20555;-70
2022/01/16 08:21:26;;;;;;;183.85;43.72;;;-0.70;99.90;;;-2.09;100.00;98543.56;5005993;28;20050;-69
2022/01/16 08:23:53;;;;;;;180.45;43.67;;;-0.70;99.90;;;-2.21;100.00;98554.31;5006586;28;20144;-67
2022/01/16 08:26:20;;;;;;;139.48;34.95;;;-0.70;99.90;;;-2.23;100.00;98570.38;5007838;28;20129;-69
2022/01/16 08:28:47;;;;;;;155.70;38.45;;;-0.70;99.90;;;-2.36;100.00;98569.19;5007530;28;20141;-69
2022/01/16 08:31:14;;;;;;;142.23;35.38;;;-0.70;99.90;;;-2.27;100.00;98564.34;5008302;28;20172;-69
2022/01/16 08:33:41;;;;;;;112.35;32.28;;;-0.70;99.90;;;-2.20;100.00;98567.88;5006819;28;20057;-70
2022/01/16 08:36:08;;;;;;;114.85;35.60;;;-0.70;99.90;;;-2.29;100.00;98585.47;5008544;28;20138;-69
2022/01/16 08:38:35;;;;;;;104.30;32.28;;;-0.70;99.90;;;-2.26;100.00;98591.47;5007418;28;20407;-69
2022/01/16 08:41:03;;;;;;;76.13;27.42;;;-0.70;99.90;;;-2.24;100.00;98581.34;5007524;28;20049;-69
2022/01/16 08:43:30;;;;;;;103.68;34.67;;;-0.70;99.90;;;-2.26;100.00;98583.84;5007630;28;20096;-69
2022/01/16 08:45:58;;;;;;;96.70;33.08;;;-0.70;99.90;;;-2.16;100.00;98595.13;5008248;28;20486;-69
2022/01/16 08:48:27;;;;;;;104.32;33.33;;;-0.70;99.90;;;-2.25;100.00;98588.13;5005852;28;20145;-70
2022/01/16 08:50:55;;;;;;;101.85;32.60;;;-0.60;99.90;;;-2.21;100.00;98602.66;5007744;28;20525;-69
2022/01/16 08:53:22;;;;;;;84.70;28.75;;;-0.60;99.90;;;-2.07;100.00;98594.50;5006497;28;20096;-69
2022/01/16 08:55:49;;;;;;;75.35;27.27;;;-0.60;99.90;;;-2.04;100.00;98600.50;5007960;28;20079;-67
2022/01/16 08:58:16;;;;;;;70.75;25.17;;;-0.60;99.90;;;-2.07;100.00;98609.75;5007737;28;20467;-69
2022/01/16 09:00:45;;;;;;;91.25;29.38;;;-0.60;99.90;;;-2.08;100.00;98620.75;5007550;28;20054;-69
2022/01/16 09:03:13;;;;;;;105.68;29.70;;;-0.60;99.90;;;-2.15;100.00;98614.63;5006381;28;20057;-67
2022/01/16 09:05:40;;;;;;;73.97;27.27;;;-0.60;99.90;;;-2.02;100.00;98633.63;5008643;28;20192;-70
2022/01/16 09:08:07;;;;;;;108.53;30.20;;;-0.60;99.90;;;-1.95;100.00;98630.41;5000122;28;20069;-70
2022/01/16 09:10:34;;;;;;;89.93;31.50;;;-0.60;99.90;;;-1.92;100.00;98627.91;5011872;28;20141;-68
2022/01/16 09:13:02;;;;;;;79.13;30.35;;;-0.50;99.90;;;-1.85;100.00;98624.69;5011451;28;20529;-69
2022/01/16 09:15:30;;;;;;;108.00;34.53;;;-0.50;99.90;;;-1.83;100.00;98623.03;5009098;28;20103;-68
2022/01/16 09:17:57;;;;;;;113.90;34.92;;;-0.50;99.90;;;-1.90;100.00;98631.34;5011820;28;20124;-69
2022/01/16 09:20:24;;;;;;;85.40;27.63;;;-0.40;99.90;;;-1.84;100.00;98626.41;5011350;28;20423;-69
2022/01/16 09:22:51;;;;;;;119.97;35.78;;;-0.40;99.90;;;-1.99;100.00;98634.53;5011949;28;20045;-68
2022/01/16 09:25:22;;;;;;;118.55;34.83;;;-0.30;99.90;;;-1.95;100.00;98648.19;5011107;28;20045;-70
2022/01/16 09:27:50;;;;;;;92.20;30.08;;;-0.40;99.90;;;-1.78;100.00;98646.94;5010905;28;20125;-68
2022/01/16 09:30:19;;;;;;;108.57;32.67;;;-0.40;99.90;;;-1.81;100.00;98654.47;5011809;28;20053;-69
2022/01/16 09:32:46;;;;;;;110.45;31.30;;;-0.30;99.90;;;-1.93;100.00;98672.84;5001233;28;20133;-68
2022/01/16 09:35:14;;;;;;;137.35;36.10;;;-0.20;99.90;;;-1.85;100.00;98660.31;5009835;28;20127;-68
2022/01/16 09:37:42;;;;;;;108.82;34.72;;;-0.30;99.90;;;-1.75;100.00;98657.19;5009717;28;20133;-69
2022/01/16 09:40:12;;;;;;;107.45;31.60;;;-0.20;99.90;;;-1.56;100.00;98657.59;5008001;28;20090;-69
2022/01/16 09:42:39;;;;;;;134.88;37.45;;;-0.20;99.90;;;-1.61;100.00;98656.63;5008887;28;20205;-69
2022/01/16 09:45:10;;;;;;;109.28;35.15;;;-0.10;99.90;;;-1.69;100.00;98666.63;5009484;28;20322;-69
2022/01/16 09:47:44;;;;;;;99.78;31.50;;;0.00;99.90;;;-1.58;100.00;98670.28;5008552;28;20474;-69
2022/01/16 09:50:14;;;;;;;83.25;29.10;;;0.00;99.90;;;-1.49;100.00;98664.53;5009014;28;20390;-70
2022/01/16 09:52:43;;;;;;;83.30;29.33;;;0.00;99.90;;;-1.53;100.00;98665.28;5011074;28;20301;-69
2022/01/16 09:55:11;;;;;;;107.25;33.30;;;0.00;99.90;;;-1.52;100.00;98669.56;5008742;28;20089;-68
2022/01/16 09:57:39;;;;;;;107.05;36.65;;;0.00;99.90;;;-1.48;100.00;98679.00;5007197;28;20129;-69
2022/01/16 10:00:10;;;;;;;71.57;30.95;;;0.10;99.90;;;-1.32;100.00;98687.88;5009844;28;20125;-69
2022/01/16 10:02:37;;;;;;;89.45;32.92;;;0.10;99.90;;;-1.27;100.00;98692.22;5007880;28;20053;-68
2022/01/16 10:05:30;;;;;;;83.93;31.02;;;0.00;99.90;;;-1.28;100.00;98694.72;5009111;28;20506;-68
2022/01/16 10:08:02;;;;;;;83.97;32.03;;;0.00;99.90;;;-1.14;100.00;98682.28;5008522;28;20136;-70
2022/01/16 10:10:33;;;;;;;117.00;36.67;;;0.00;99.90;;;-1.37;100.00;98685.22;5007249;28;20129;-69
2022/01/16 10:13:20;;;;;;;90.15;32.22;;;0.10;99.90;;;-1.29;100.00;98686.22;5008833;28;20510;-69
2022/01/16 10:15:57;;;;;;;95.35;33.10;;;0.20;99.90;;;-1.11;100.00;98679.81;5008414;28;20081;-68
2022/01/16 10:18:39;;;;;;;80.07;34.55;;;0.20;99.90;;;-0.99;100.00;98687.72;5004627;28;20100;-69
2022/01/16 10:21:08;;;;;;;104.53;34.78;;;0.20;99.90;;;-1.37;100.00;98699.59;5006993;28;20270;-71
2022/01/16 10:23:44;;;;;;;81.90;30.00;;;0.20;99.90;;;-1.13;100.00;98684.03;5008548;28;20107;-68
2022/01/16 10:26:22;;;;;;;102.95;33.22;;;0.20;99.90;;;-1.17;100.00;98683.09;5009945;28;20107;-69
2022/01/16 10:28:52;;;;;;;81.35;32.15;;;0.20;99.90;;;-1.18;100.00;98683.06;5022871;28;20049;-69
2022/01/16 10:31:27;;;;;;;68.22;27.60;;;0.20;99.90;;;-1.15;100.00;98680.59;5010653;28;20069;-69
2022/01/16 10:33:55;;;;;;;95.85;35.53;;;0.20;99.90;;;-1.14;100.00;98678.06;5026958;28;20191;-70
2022/01/16 10:36:38;;;;;;;87.90;33.90;;;0.30;99.90;;;-1.13;100.00;98684.03;5029573;28;20049;-71
2022/01/16 10:39:08;;;;;;;98.83;36.47;;;0.20;99.90;;;-1.17;100.00;98698.38;5029104;28;20144;-68
2022/01/16 10:41:36;;;;;;;86.40;32.88;;;0.30;99.90;;;-1.13;100.00;98691.66;5026449;28;20064;-67
2022/01/16 10:44:03;;;;;;;99.13;34.60;;;0.40;99.90;;;-1.25;100.00;98697.34;5028244;28;20564;-68
2022/01/16 10:46:30;;;;;;;98.78;37.05;;;0.30;99.90;;;-1.12;100.00;98704.44;5027088;28;20045;-69
2022/01/16 10:49:17;;;;;;;64.50;26.10;;;0.40;99.90;;;-1.20;100.00;98728.03;5027470;28;20068;-68